Terminal Aerodrome Forecast
Issued by NWS

Home | Current Version | Previous Version | Text Only | Print | Product List | Glossary On
Versions: 1 2 3 4 5 6 7 8 9 10 11 12 13 14 15
000
FTUS44 KLZK 201700
TAFLIT
TAF
KLIT 201722Z 2018/2118 26008KT P6SM VCSH SCT050 BKN090
      TEMPO 2018/2022 BKN050
     FM210100 VRB03KT P6SM SCT120 SCT250
      TEMPO 2109/2113 4SM BR
     FM211300 VRB05KT P6SM SCT250=

USA.gov is the U.S. government's official web portal to all federal, state and local government web resources and services.